.
WxDataArchive / Data Records for 2015-12-06
2015-12-05 December 2015 2015-12-07

Data Records for Sunday, 06 December 2015

Time	Temp	Chill	HIndex	Humid	Dewpt	 Wind 	HiWind	WindDir	Rain 	Barom
-----	----	-----	------	-----	-----	------	------	-------	-----	-----
00:00	27.3	27.3	27.3	92	25.3	0	0	---	0.00	30.548 
00:05	27.2	27.2	27.2	92	25.2	0	0	---	0.00	30.548 
00:10	27.2	27.2	27.2	92	25.2	0	0	---	0.00	30.548 
00:15	27.2	27.2	27.2	92	25.2	0	0	---	0.00	30.539 
00:20	27.0	27.0	27.0	92	25.0	0	0	---	0.00	30.539 
00:25	26.9	26.9	26.9	92	24.9	0	0	---	0.00	30.539 
00:30	26.7	26.7	26.7	92	24.7	0	0	---	0.00	30.544 
00:35	26.7	26.7	26.7	92	24.7	0	0	---	0.00	30.544 
00:40	26.6	26.6	26.6	92	24.6	0	0	---	0.00	30.544 
00:45	26.4	26.4	26.4	92	24.4	0	0	---	0.00	30.538 
00:50	26.4	26.4	26.4	92	24.4	0	0	---	0.00	30.538 
00:55	26.3	26.3	26.3	92	24.3	0	0	---	0.00	30.538 
01:00	26.3	26.3	26.3	92	24.3	0	0	---	0.00	30.532 
01:05	26.6	26.6	26.6	92	24.6	0	0	---	0.00	30.532 
01:10	26.7	26.7	26.7	93	25.0	0	0	---	0.00	30.532 
01:15	26.7	26.7	26.7	93	25.0	0	0	---	0.00	30.518 
01:20	26.7	26.7	26.7	93	25.0	0	1	90	0.00	30.518 
01:25	26.7	26.7	26.7	93	25.0	0	2	90	0.00	30.518 
01:30	26.7	26.7	26.7	93	25.0	0	1	90	0.00	30.504 
01:35	26.9	26.9	26.9	93	25.2	0	2	90	0.00	30.504 
01:40	27.0	27.0	27.0	93	25.3	0	1	90	0.00	30.504 
01:45	27.0	27.0	27.0	93	25.3	0	1	90	0.00	30.499 
01:50	27.0	27.0	27.0	93	25.3	0	2	90	0.00	30.499 
01:55	27.0	27.0	27.0	93	25.3	0	1	90	0.00	30.499 
02:00	26.9	26.9	26.9	93	25.2	0	2	90	0.00	30.499 
02:05	26.7	26.7	26.7	93	25.0	0	0	---	0.00	30.499 
02:10	26.6	26.6	26.6	93	24.9	0	1	90	0.00	30.499 
02:15	26.3	26.3	26.3	93	24.6	0	2	90	0.00	30.493 
02:20	26.1	26.1	26.1	93	24.4	0	1	90	0.00	30.493 
02:25	26.0	26.0	26.0	93	24.3	0	0	---	0.00	30.493 
02:30	26.0	26.0	26.0	93	24.3	0	1	90	0.00	30.484 
02:35	25.8	25.8	25.8	93	24.1	0	2	90	0.00	30.484 
02:40	25.8	25.8	25.8	93	24.1	0	2	90	0.00	30.484 
02:45	25.7	25.7	25.7	93	24.0	0	2	90	0.00	30.479 
02:50	25.7	25.7	25.7	93	24.0	0	2	90	0.00	30.479 
02:55	25.6	25.6	25.6	93	23.9	0	2	90	0.00	30.479 
03:00	25.6	25.6	25.6	93	23.9	0	2	90	0.00	30.474 
03:05	25.6	25.6	25.6	93	23.9	0	2	90	0.00	30.474 
03:10	25.6	25.6	25.6	93	23.9	0	1	90	0.00	30.474 
03:15	25.6	25.6	25.6	93	23.9	0	1	90	0.00	30.465 
03:20	25.4	25.4	25.4	93	23.7	0	1	90	0.00	30.465 
03:25	25.4	25.4	25.4	93	23.7	0	0	---	0.00	30.465 
03:30	25.3	25.3	25.3	93	23.6	0	0	---	0.00	30.478 
03:35	25.1	25.1	25.1	93	23.4	0	0	---	0.00	30.478 
03:40	25.0	25.0	25.0	93	23.3	0	0	---	0.00	30.478 
03:45	24.8	24.8	24.8	93	23.1	0	0	---	0.00	30.484 
03:50	24.8	24.8	24.8	93	23.1	0	0	---	0.00	30.484 
03:55	24.7	24.7	24.7	93	23.0	0	0	---	0.00	30.484 
04:00	24.5	24.5	24.5	93	22.8	0	0	---	0.00	30.480 
04:05	24.5	24.5	24.5	93	22.8	0	0	---	0.00	30.480 
04:10	24.4	24.4	24.4	93	22.7	0	0	---	0.00	30.480 
04:15	24.4	24.4	24.4	93	22.7	0	0	---	0.00	30.481 
04:20	24.2	24.2	24.2	93	22.5	0	0	---	0.00	30.481 
04:25	24.1	24.1	24.1	93	22.4	0	0	---	0.00	30.481 
04:30	23.9	23.9	23.9	93	22.2	0	0	---	0.00	30.469 
04:35	23.8	23.8	23.8	93	22.1	0	0	---	0.00	30.469 
04:40	23.6	23.6	23.6	93	21.9	0	0	---	0.00	30.469 
04:45	23.5	23.5	23.5	93	21.8	0	0	---	0.00	30.466 
04:50	23.5	23.5	23.5	93	21.8	0	0	---	0.00	30.466 
04:55	23.3	23.3	23.3	93	21.6	0	0	---	0.00	30.466 
05:00	23.2	23.2	23.2	93	21.5	0	0	---	0.00	30.466 
05:05	23.0	23.0	23.0	93	21.3	0	0	---	0.00	30.466 
05:10	23.0	23.0	23.0	92	21.0	0	0	---	0.00	30.466 
05:15	22.9	22.9	22.9	92	20.9	0	0	---	0.00	30.469 
05:20	22.9	22.9	22.9	92	20.9	0	0	---	0.00	30.469 
05:25	22.7	22.7	22.7	92	20.7	0	0	---	0.00	30.469 
05:30	22.5	22.5	22.5	92	20.5	0	0	---	0.00	30.459 
05:35	22.5	22.5	22.5	92	20.5	0	0	---	0.00	30.459 
05:40	22.5	22.5	22.5	92	20.5	0	0	---	0.00	30.459 
05:45	22.7	22.7	22.7	93	21.0	0	0	---	0.00	30.453 
05:50	22.9	22.9	22.9	92	20.9	0	0	---	0.00	30.453 
05:55	22.9	22.9	22.9	92	20.9	0	0	---	0.00	30.453 
06:00	22.9	22.9	22.9	92	20.9	0	0	---	0.00	30.450 
06:05	23.0	23.0	23.0	92	21.0	0	0	---	0.00	30.450 
06:10	23.0	23.0	23.0	92	21.0	0	0	---	0.00	30.450 
06:15	23.2	23.2	23.2	92	21.2	0	0	---	0.00	30.450 
06:20	23.2	23.2	23.2	92	21.2	0	0	---	0.00	30.450 
06:25	23.2	23.2	23.2	92	21.2	0	0	---	0.00	30.450 
06:30	23.2	23.2	23.2	92	21.2	0	0	---	0.00	30.452 
06:35	23.2	23.2	23.2	92	21.2	0	1	90	0.00	30.452 
06:40	23.2	23.2	23.2	92	21.2	0	0	---	0.00	30.452 
06:45	23.2	23.2	23.2	92	21.2	0	0	---	0.00	30.441 
06:50	23.3	23.3	23.3	92	21.3	0	0	---	0.00	30.441 
06:55	23.3	23.3	23.3	92	21.3	0	0	---	0.00	30.441 
07:00	23.3	23.3	23.3	92	21.3	0	0	---	0.00	30.441 
07:05	23.3	23.3	23.3	92	21.3	0	0	---	0.00	30.441 
07:10	23.2	23.2	23.2	92	21.2	0	0	---	0.00	30.441 
07:15	23.2	23.2	23.2	92	21.2	0	0	---	0.00	30.435 
07:20	23.2	23.2	23.2	92	21.2	0	0	---	0.00	30.435 
07:25	23.2	23.2	23.2	92	21.2	0	0	---	0.00	30.435 
07:30	23.2	23.2	23.2	92	21.2	0	0	---	0.00	30.440 
07:35	23.2	23.2	23.2	92	21.2	0	0	---	0.00	30.440 
07:40	23.2	23.2	23.2	92	21.2	0	0	---	0.00	30.440 
07:45	23.0	23.0	23.0	92	21.0	0	0	---	0.00	30.436 
07:50	23.2	23.2	23.2	92	21.2	0	0	---	0.00	30.436 
07:55	23.2	23.2	23.2	92	21.2	0	0	---	0.00	30.436 
08:00	23.2	23.2	23.2	92	21.2	0	0	---	0.00	30.435 
08:05	23.2	23.2	23.2	92	21.2	0	0	---	0.00	30.435 
08:10	23.3	23.3	23.3	92	21.3	0	0	---	0.00	30.435 
08:15	23.3	23.3	23.3	92	21.3	0	0	---	0.00	30.438 
08:20	23.6	23.6	23.6	93	21.9	0	0	---	0.00	30.438 
08:25	23.8	23.8	23.8	93	22.1	0	0	---	0.00	30.438 
08:30	23.8	23.8	23.8	93	22.1	0	0	---	0.00	30.427 
08:35	23.9	23.9	23.9	93	22.2	0	0	---	0.00	30.427 
08:40	24.1	24.1	24.1	93	22.4	0	0	---	0.00	30.427 
08:45	24.2	24.2	24.2	93	22.5	0	0	---	0.00	30.426 
08:50	24.4	24.4	24.4	93	22.7	0	0	---	0.00	30.426 
08:55	24.5	24.5	24.5	93	22.8	0	0	---	0.00	30.426 
09:00	24.8	24.8	24.8	93	23.1	0	0	---	0.00	30.426 
09:05	25.0	25.0	25.0	93	23.3	0	0	---	0.00	30.426 
09:10	25.3	25.3	25.3	93	23.6	0	0	---	0.00	30.426 
09:15	25.4	25.4	25.4	93	23.7	0	0	---	0.00	30.423 
09:20	25.7	25.7	25.7	93	24.0	0	0	---	0.00	30.423 
09:25	26.0	26.0	26.0	93	24.3	0	0	---	0.00	30.423 
09:30	26.3	26.3	26.3	93	24.6	0	0	---	0.00	30.423 
09:35	26.6	26.6	26.6	93	24.9	0	0	---	0.00	30.423 
09:40	26.7	26.7	26.7	93	25.0	0	0	---	0.00	30.423 
09:45	27.0	27.0	27.0	94	25.5	0	0	---	0.00	30.424 
09:50	27.3	27.3	27.3	94	25.8	0	0	---	0.00	30.424 
09:55	27.5	27.5	27.5	94	26.0	0	0	---	0.00	30.424 
10:00	27.9	27.9	27.9	94	26.4	0	0	---	0.00	30.421 
10:05	28.2	28.2	28.2	94	26.7	0	0	---	0.00	30.421 
10:10	28.5	28.5	28.5	94	27.0	0	0	---	0.00	30.421 
10:15	29.0	29.0	29.0	94	27.5	0	0	---	0.00	30.418 
10:20	29.4	29.4	29.4	94	27.9	0	0	---	0.00	30.418 
10:25	29.8	29.8	29.8	94	28.3	0	0	---	0.00	30.418 
10:30	30.3	30.3	30.3	94	28.8	0	2	90	0.00	30.408 
10:35	30.6	30.6	30.6	94	29.1	0	1	90	0.00	30.408 
10:40	30.9	30.9	30.9	94	29.4	0	1	90	0.00	30.408 
10:45	31.2	31.2	31.2	94	29.7	0	0	---	0.00	30.414 
10:50	31.5	31.5	31.5	95	30.2	0	0	---	0.00	30.414 
10:55	31.8	31.8	31.8	95	30.5	0	0	---	0.00	30.414 
11:00	32.4	32.4	32.4	95	31.1	0	0	---	0.00	30.407 
11:05	32.7	32.7	32.7	95	31.4	0	1	90	0.00	30.407 
11:10	32.9	32.9	32.9	95	31.6	0	1	90	0.00	30.407 
11:15	33.4	33.4	33.4	95	32.1	0	0	---	0.00	30.405 
11:20	33.7	33.7	33.7	95	32.4	0	0	---	0.00	30.405 
11:25	34.1	34.1	34.1	95	32.8	0	0	---	0.00	30.405 
11:30	34.7	34.7	34.7	95	33.4	0	1	90	0.00	30.390 
11:35	35.0	35.0	35.0	95	33.7	0	1	90	0.00	30.390 
11:40	35.3	35.3	35.3	95	34.0	0	0	---	0.00	30.390 
11:45	35.8	35.8	35.8	95	34.5	0	0	---	0.00	30.384 
11:50	36.0	36.0	36.0	95	34.7	0	1	90	0.00	30.384 
11:55	36.6	36.6	36.6	95	35.3	0	1	90	0.00	30.384 
12:00	37.2	37.2	37.2	95	35.9	0	1	90	0.00	30.370 
12:05	37.8	37.8	37.8	95	36.5	0	2	90	0.00	30.370 
12:10	38.2	38.2	38.2	94	36.6	0	3	90	0.00	30.370 
12:15	38.8	38.8	38.8	93	37.0	0	2	90	0.00	30.362 
12:20	39.2	39.2	39.2	92	37.1	0	2	90	0.00	30.362 
12:25	39.6	39.6	39.6	91	37.2	0	2	90	0.00	30.362 
12:30	40.2	40.2	40.2	90	37.5	0	1	0	0.00	30.350 
12:35	41.1	41.1	41.1	88	37.8	0	2	0	0.00	30.350 
12:40	41.5	41.5	41.5	84	37.0	1	3	22	0.00	30.350 
12:45	42.1	42.1	42.1	83	37.3	0	2	22	0.00	30.334 
12:50	42.6	42.6	42.6	80	36.9	0	4	45	0.00	30.334 
12:55	43.2	43.2	43.2	78	36.8	1	3	68	0.00	30.334 
13:00	43.5	43.5	43.5	77	36.8	0	3	68	0.00	30.318 
13:05	43.8	43.8	43.8	74	36.1	1	3	135	0.00	30.318 
13:10	44.2	44.2	44.2	74	36.4	1	4	135	0.00	30.318 
13:15	44.5	44.5	44.5	72	36.0	1	3	135	0.00	30.297 
13:20	44.9	44.9	44.9	72	36.4	1	4	68	0.00	30.297 
13:25	45.5	45.5	45.5	69	35.9	1	4	112	0.00	30.297 
13:30	46.0	46.0	46.0	66	35.3	1	5	90	0.00	30.280 
13:35	46.4	46.4	46.4	65	35.3	1	4	90	0.00	30.280 
13:40	47.0	47.0	47.0	66	36.2	1	3	90	0.00	30.280 
13:45	47.1	47.1	47.1	66	36.3	1	5	112	0.00	30.279 
13:50	47.4	47.4	47.4	65	36.2	1	3	90	0.00	30.279 
13:55	47.6	47.6	47.6	64	36.0	0	4	90	0.00	30.279 
14:00	47.9	47.9	47.9	63	35.9	0	3	90	0.00	30.268 
14:05	48.0	48.0	48.0	62	35.6	0	2	90	0.00	30.268 
14:10	48.2	48.2	48.2	61	35.4	1	3	90	0.00	30.268 
14:15	48.5	48.5	48.5	61	35.7	0	2	90	0.00	30.254 
14:20	48.6	48.6	48.6	60	35.3	1	3	90	0.00	30.254 
14:25	48.6	48.6	48.6	61	35.8	0	2	90	0.00	30.254 
14:30	48.8	48.8	48.8	61	36.0	1	3	90	0.00	30.234 
14:35	48.9	48.9	48.9	61	36.0	1	5	112	0.00	30.234 
14:40	49.1	49.1	49.1	61	36.2	1	5	135	0.00	30.234 
14:45	49.2	49.2	49.2	59	35.5	1	3	112	0.00	30.234 
14:50	49.2	49.2	49.2	59	35.5	1	2	112	0.00	30.234 
14:55	49.4	49.4	49.4	59	35.7	1	4	112	0.00	30.234 
15:00	49.4	49.4	49.4	59	35.7	0	2	112	0.00	30.234 
15:05	49.5	49.5	49.5	60	36.2	0	1	112	0.00	30.234 
15:10	49.5	49.5	49.5	59	35.8	1	3	112	0.00	30.234 
15:15	49.5	49.5	49.5	58	35.3	0	4	112	0.00	30.234 
15:20	49.5	49.5	49.5	58	35.3	1	3	112	0.00	30.234 
15:25	49.5	49.5	49.5	58	35.3	0	2	112	0.00	30.234 
15:30	49.6	49.6	49.6	57	35.0	1	2	112	0.00	30.221 
15:35	49.8	49.8	49.8	57	35.2	0	2	112	0.00	30.221 
15:40	49.8	49.8	49.8	57	35.2	0	3	112	0.00	30.221 
15:45	49.8	49.8	49.8	57	35.2	0	2	112	0.00	30.225 
15:50	49.8	49.8	49.8	57	35.2	0	1	112	0.00	30.225 
15:55	49.8	49.8	49.8	58	35.6	0	2	112	0.00	30.225 
16:00	49.8	49.8	49.8	58	35.6	0	2	112	0.00	30.231 
16:05	49.6	49.6	49.6	58	35.4	0	1	112	0.00	30.231 
16:10	49.6	49.6	49.6	58	35.4	0	1	112	0.00	30.231 
16:15	49.5	49.5	49.5	58	35.3	0	2	112	0.00	30.228 
16:20	49.5	49.5	49.5	58	35.3	0	2	112	0.00	30.228 
16:25	49.4	49.4	49.4	58	35.2	0	1	112	0.00	30.228 
16:30	49.4	49.4	49.4	58	35.2	0	2	112	0.00	30.222 
16:35	49.2	49.2	49.2	59	35.5	0	2	112	0.00	30.222 
16:40	48.9	48.9	48.9	60	35.6	0	2	112	0.00	30.222 
16:45	48.8	48.8	48.8	60	35.5	0	1	90	0.00	30.227 
16:50	48.6	48.6	48.6	60	35.3	0	1	90	0.00	30.227 
16:55	48.2	48.2	48.2	61	35.4	0	1	90	0.00	30.227 
17:00	47.9	47.9	47.9	61	35.1	0	0	---	0.00	30.235 
17:05	47.3	47.3	47.3	62	34.9	0	0	---	0.00	30.235 
17:10	46.8	46.8	46.8	62	34.5	0	0	---	0.00	30.235 
17:15	46.2	46.2	46.2	64	34.7	0	0	---	0.00	30.239 
17:20	45.7	45.7	45.7	65	34.6	0	0	---	0.00	30.239 
17:25	44.9	44.9	44.9	66	34.2	0	0	---	0.00	30.239 
17:30	44.3	44.3	44.3	67	34.0	0	0	---	0.00	30.240 
17:35	43.6	43.6	43.6	69	34.1	0	0	---	0.00	30.240 
17:40	43.1	43.1	43.1	69	33.6	0	0	---	0.00	30.240 
17:45	42.5	42.5	42.5	71	33.8	0	0	---	0.00	30.241 
17:50	41.9	41.9	41.9	73	33.9	0	0	---	0.00	30.241 
17:55	41.5	41.5	41.5	74	33.8	0	0	---	0.00	30.241 
18:00	41.1	41.1	41.1	75	33.8	0	0	---	0.00	30.241 
18:05	40.5	40.5	40.5	76	33.5	0	0	---	0.00	30.241 
18:10	40.1	40.1	40.1	77	33.5	0	0	---	0.00	30.241 
18:15	39.6	39.6	39.6	78	33.3	0	0	---	0.00	30.236 
18:20	39.3	39.3	39.3	78	33.0	0	0	---	0.00	30.236 
18:25	38.9	38.9	38.9	79	33.0	0	0	---	0.00	30.236 
18:30	38.6	38.6	38.6	80	33.0	0	0	---	0.00	30.241 
18:35	38.3	38.3	38.3	80	32.7	0	0	---	0.00	30.241 
18:40	38.0	38.0	38.0	81	32.7	0	0	---	0.00	30.241 
18:45	37.8	37.8	37.8	82	32.8	0	0	---	0.00	30.236 
18:50	37.6	37.6	37.6	82	32.6	0	0	---	0.00	30.236 
18:55	37.5	37.5	37.5	82	32.5	0	0	---	0.00	30.236 
19:00	37.5	37.5	37.5	83	32.8	0	0	---	0.00	30.239 
19:05	37.5	37.5	37.5	84	33.1	0	0	---	0.00	30.239 
19:10	37.5	37.5	37.5	84	33.1	0	0	---	0.00	30.239 
19:15	37.5	37.5	37.5	84	33.1	0	0	---	0.00	30.242 
19:20	37.5	37.5	37.5	84	33.1	0	0	---	0.00	30.242 
19:25	37.5	37.5	37.5	85	33.4	0	0	---	0.00	30.242 
19:30	37.5	37.5	37.5	85	33.4	0	0	---	0.00	30.237 
19:35	37.9	37.9	37.9	86	34.1	0	1	90	0.00	30.237 
19:40	38.5	38.5	38.5	86	34.7	0	0	---	0.00	30.237 
19:45	38.9	38.9	38.9	86	35.1	0	0	---	0.00	30.229 
19:50	39.1	39.1	39.1	85	35.0	0	0	---	0.00	30.229 
19:55	39.2	39.2	39.2	85	35.1	0	0	---	0.00	30.229 
20:00	39.2	39.2	39.2	85	35.1	0	0	---	0.00	30.230 
20:05	39.1	39.1	39.1	85	35.0	0	0	---	0.00	30.230 
20:10	38.9	38.9	38.9	85	34.8	0	0	---	0.00	30.230 
20:15	38.8	38.8	38.8	84	34.4	0	0	---	0.00	30.227 
20:20	38.5	38.5	38.5	84	34.1	0	0	---	0.00	30.227 
20:25	38.2	38.2	38.2	84	33.8	0	0	---	0.00	30.227 
20:30	37.9	37.9	37.9	85	33.8	0	0	---	0.00	30.226 
20:35	37.8	37.8	37.8	85	33.7	0	0	---	0.00	30.226 
20:40	37.5	37.5	37.5	85	33.4	0	0	---	0.00	30.226 
20:45	37.3	37.3	37.3	85	33.2	0	0	---	0.00	30.227 
20:50	37.2	37.2	37.2	85	33.1	0	0	---	0.00	30.227 
20:55	37.0	37.0	37.0	86	33.2	0	0	---	0.00	30.227 
21:00	36.9	36.9	36.9	86	33.1	0	0	---	0.00	30.222 
21:05	36.8	36.8	36.8	86	33.0	0	0	---	0.00	30.222 
21:10	36.5	36.5	36.5	86	32.7	0	0	---	0.00	30.222 
21:15	36.3	36.3	36.3	86	32.5	0	0	---	0.00	30.218 
21:20	36.0	36.0	36.0	86	32.2	0	0	---	0.00	30.218 
21:25	35.8	35.8	35.8	87	32.3	0	0	---	0.00	30.218 
21:30	35.5	35.5	35.5	87	32.0	0	0	---	0.00	30.219 
21:35	35.3	35.3	35.3	87	31.8	0	0	---	0.00	30.219 
21:40	35.0	35.0	35.0	87	31.5	0	0	---	0.00	30.219 
21:45	34.7	34.7	34.7	87	31.2	0	0	---	0.00	30.220 
21:50	34.6	34.6	34.6	87	31.1	0	0	---	0.00	30.220 
21:55	34.3	34.3	34.3	88	31.1	0	0	---	0.00	30.220 
22:00	34.1	34.1	34.1	88	30.9	0	0	---	0.00	30.222 
22:05	34.0	34.0	34.0	88	30.8	0	0	---	0.00	30.222 
22:10	33.8	33.8	33.8	88	30.6	0	0	---	0.00	30.222 
22:15	33.8	33.8	33.8	88	30.6	0	0	---	0.00	30.217 
22:20	33.8	33.8	33.8	89	30.9	0	0	---	0.00	30.217 
22:25	33.7	33.7	33.7	89	30.8	0	0	---	0.00	30.217 
22:30	33.7	33.7	33.7	89	30.8	0	0	---	0.00	30.220 
22:35	33.7	33.7	33.7	90	31.1	0	0	---	0.00	30.220 
22:40	33.7	33.7	33.7	90	31.1	0	0	---	0.00	30.220 
22:45	33.5	33.5	33.5	90	30.9	0	0	---	0.00	30.215 
22:50	33.4	33.4	33.4	90	30.8	0	0	---	0.00	30.215 
22:55	33.4	33.4	33.4	90	30.8	0	0	---	0.00	30.215 
23:00	33.1	33.1	33.1	90	30.5	0	0	---	0.00	30.216 
23:05	32.9	32.9	32.9	90	30.3	0	0	---	0.00	30.216 
23:10	32.8	32.8	32.8	90	30.2	0	0	---	0.00	30.216 
23:15	32.7	32.7	32.7	90	30.1	0	0	---	0.00	30.210 
23:20	32.5	32.5	32.5	90	29.9	0	0	---	0.00	30.210 
23:25	32.2	32.2	32.2	90	29.6	0	0	---	0.00	30.210 
23:30	32.1	32.1	32.1	90	29.5	0	0	---	0.00	30.211 
23:35	31.8	31.8	31.8	90	29.2	0	0	---	0.00	30.211 
23:40	31.6	31.6	31.6	90	29.0	0	0	---	0.00	30.211 
23:45	31.6	31.6	31.6	90	29.0	0	0	---	0.00	30.209 
23:50	31.5	31.5	31.5	90	28.9	0	0	---	0.00	30.209 
23:55	31.3	31.3	31.3	90	28.7	0	0	---	0.00	30.209 

CoCoRaHS
IN-AL-39
A2 Web Hosting
Creative Commons License
GoDaddy
search engine by freefind advanced

loaded 2018-11-20 02:46:36 • last modified 2010-11-18 10:43:29
Privacy PolicyDisclaimer
• wx.awcolley.com is powered by PmWiki v.2002016 •
• all content (unless otherwise noted) © 2018 A W Colley